Latest Weather Observations for Warragul (Nilma North)

IDV60801

Issued at 10:31 am EST Saturday 29 August 2015 (issued every 30 minutes, with the page automatically refreshed every 10 minutes)

About weather observations | Map of weather stations | Latest weather observations for VIC | Other Formats
Station Details ID: 085313 Name: NILMA NORTH (WARRAGUL) Lat: -38.13 Lon: 145.99 Height: 134.11 m
Data from the previous 72 hours. | See also: Recent months for locations in Victoria
Date/Time
EST
Temp
°C
App
Temp
°C
Dew
Point
Rel
Hum
%
Delta-T
°C
Wind Press
QNH
hPa
Press
MSL
hPa
Rain
since 9 am
mm
Dir
 
Spd
km/h
Gust
km/h
Spd
kts
Gust
kts
29/10:30am 7.3 2.9 6.4 94 0.4 WNW 19 28 10 15 1024.8 1025.0 0.6
29/10:00am 7.5 2.4 6.0 90 0.7 WNW 22 35 12 19 1024.8 1025.0 0.0
29/09:30am 7.3 2.8 5.9 91 0.6 WNW 19 30 10 16 1025.0 1025.2 0.0
29/09:00am 6.6 1.3 5.1 90 0.7 WNW 22 33 12 18 1025.2 1025.4 2.0
29/08:30am 6.1 1.2 4.1 87 0.9 WNW 19 28 10 15 1025.1 1025.3 2.0
29/08:00am 6.0 1.7 3.5 84 1.1 WNW 15 24 8 13 1025.2 1025.4 2.0
29/07:30am 4.9 1.3 2.9 87 0.8 WNW 11 17 6 9 1024.8 1025.0 2.0
29/07:00am 4.3 1.1 3.1 92 0.5 WNW 9 15 5 8 1024.8 1025.0 2.0
29/06:30am 3.6 -0.4 2.9 95 0.3 NW 13 17 7 9 1024.6 1024.8 2.0
29/06:00am 3.3 0.0 2.6 95 0.3 NW 9 13 5 7 1024.6 1024.8 2.0
29/05:30am 3.2 0.3 2.5 95 0.3 WNW 7 9 4 5 1024.7 1024.9 2.0
29/05:00am 3.0 0.3 2.4 96 0.2 WNW 6 9 3 5 1024.8 1025.0 2.0
29/04:30am 3.4 0.7 2.7 95 0.3 NW 6 9 3 5 1024.7 1024.9 2.0
29/04:00am 4.0 1.4 3.0 93 0.4 WNW 6 9 3 5 1024.7 1024.9 2.0
29/03:30am 4.7 2.2 3.5 92 0.5 W 6 11 3 6 1024.8 1025.0 2.0
29/03:00am 5.2 2.2 3.9 91 0.5 WNW 9 15 5 8 1024.8 1025.0 2.0
29/02:30am 5.8 2.9 4.8 93 0.4 WNW 9 15 5 8 1025.0 1025.2 2.0
29/02:00am 5.4 3.4 4.2 92 0.5 WNW 4 6 2 3 1025.1 1025.3 2.0
29/01:30am 5.7 3.4 4.7 93 0.4 NW 6 9 3 5 1025.2 1025.4 2.0
29/01:00am 5.8 2.9 4.9 94 0.4 WNW 9 13 5 7 1025.3 1025.5 2.0
29/12:30am 5.9 3.4 5.0 94 0.4 W 7 11 4 6 1025.3 1025.5 2.0
29/12:00am 5.9 3.6 5.0 94 0.4 WNW 6 7 3 4 1025.3 1025.5 1.8
 
Date/Time
EST
Temp
°C
App
Temp
°C
Dew
Point
Rel
Hum
%
Delta-T
°C
Wind Press
QNH
hPa
Press
MSL
hPa
Rain
since 9 am
mm
Dir
 
Spd
km/h
Gust
km/h
Spd
kts
Gust
kts
28/11:30pm 6.0 3.5 5.0 93 0.4 W 7 13 4 7 1025.4 1025.6 1.8
28/11:00pm 6.2 3.8 5.2 93 0.4 WNW 7 13 4 7 1025.2 1025.4 1.8
28/10:30pm 6.0 3.6 5.1 94 0.4 WNW 7 9 4 5 1025.4 1025.6 1.8
28/10:00pm 6.4 4.1 5.5 94 0.4 NW 7 13 4 7 1025.4 1025.6 1.8
28/09:30pm 6.8 4.1 5.6 92 0.5 WNW 9 15 5 8 1025.6 1025.8 1.2
28/09:00pm 6.7 4.5 5.3 91 0.6 WNW 6 7 3 4 1025.3 1025.5 0.4
28/08:30pm 7.1 4.8 5.6 90 0.7 WNW 7 9 4 5 1025.1 1025.3 0.4
28/08:00pm 7.1 4.8 5.9 92 0.5 WNW 7 9 4 5 1025.0 1025.2 0.4
28/07:30pm 7.8 5.2 6.1 89 0.8 WNW 9 15 5 8 1024.8 1025.0 0.4
28/07:00pm 8.0 5.4 6.3 89 0.8 W 9 13 5 7 1024.6 1024.8 0.4
28/06:30pm 8.4 5.9 6.5 88 0.9 W 9 17 5 9 1024.3 1024.5 0.4
28/06:00pm 8.9 6.3 6.2 83 1.2 W 9 15 5 8 1024.0 1024.2 0.4
28/05:30pm 9.9 7.0 6.3 78 1.7 W 11 17 6 9 1023.7 1023.9 0.4
28/05:00pm 10.8 8.2 6.2 73 2.2 W 9 19 5 10 1023.6 1023.8 0.4
28/04:30pm 11.5 8.5 6.2 70 2.5 WSW 11 19 6 10 1023.5 1023.7 0.4
28/04:00pm 11.4 8.3 5.7 68 2.6 WSW 11 19 6 10 1023.4 1023.6 0.4
28/03:30pm 12.7 9.8 6.3 65 3.1 WSW 11 19 6 10 1023.4 1023.6 0.4
28/03:00pm 12.8 10.4 6.8 67 2.9 SW 9 17 5 9 1023.4 1023.6 0.4
28/02:30pm 11.9 9.6 5.5 65 3.0 SW 7 15 4 8 1023.3 1023.5 0.4
28/02:00pm 11.8 8.4 5.9 67 2.8 WSW 13 24 7 13 1023.4 1023.6 0.4
28/01:30pm 12.4 9.1 6.5 67 2.8 W 13 22 7 12 1023.3 1023.5 0.4
28/01:00pm 12.4 9.4 7.5 72 2.4 W 13 22 7 12 1023.5 1023.7 0.4
28/12:30pm 11.7 8.6 7.2 74 2.2 W 13 26 7 14 1023.9 1024.1 0.4
28/12:00pm 10.8 7.1 7.9 82 1.4 W 17 20 9 11 1024.3 1024.5 0.4
28/11:30am 10.9 7.5 7.8 81 1.5 W 15 26 8 14 1024.7 1024.9 0.4
28/11:00am 10.1 7.3 8.5 90 0.8 W 13 20 7 11 1024.8 1025.0 0.4
28/10:30am 9.4 6.5 8.3 93 0.5 W 13 19 7 10 1024.8 1025.0 0.4
28/10:00am 8.8 5.9 8.0 95 0.4 W 13 20 7 11 1024.7 1024.9 0.4
28/09:30am 8.9 6.3 7.8 93 0.5 WNW 11 19 6 10 1024.6 1024.8 0.2
28/09:00am 8.9 6.2 7.5 91 0.7 WNW 11 17 6 9 1024.6 1024.8 32.8
28/08:30am 9.0 7.1 7.6 91 0.7 WNW 7 13 4 7 1024.5 1024.7 32.8
28/08:00am 8.4 5.6 6.9 90 0.7 WNW 11 19 6 10 1024.1 1024.3 32.8
28/07:30am 7.3 5.1 6.4 94 0.4 NW 7 15 4 8 1024.1 1024.3 32.8
28/07:00am 6.9 4.3 6.2 95 0.3 NW 9 13 5 7 1023.9 1024.1 32.8
28/06:30am 6.5 3.5 5.9 96 0.3 NW 11 15 6 8 1023.7 1023.9 32.8
28/06:00am 6.2 3.5 5.6 96 0.3 NW 9 13 5 7 1023.6 1023.8 32.8
28/05:30am 6.6 4.5 5.7 94 0.4 WNW 6 9 3 5 1023.3 1023.5 32.8
28/05:00am 7.5 5.3 6.4 93 0.5 WNW 7 11 4 6 1023.0 1023.2 32.8
28/04:30am 7.8 4.9 6.6 92 0.6 WNW 11 19 6 10 1022.8 1023.0 32.8
28/04:00am 7.6 5.4 6.4 92 0.5 WNW 7 11 4 6 1022.7 1022.9 32.8
28/03:30am 7.9 5.0 6.5 91 0.6 WNW 11 15 6 8 1022.5 1022.7 32.8
28/03:00am 7.7 4.4 6.6 93 0.5 W 13 17 7 9 1022.6 1022.8 32.8
28/02:30am 8.2 5.4 7.0 92 0.6 W 11 17 6 9 1022.6 1022.8 32.8
28/02:00am 8.9 7.0 7.7 92 0.6 W 7 11 4 6 1022.7 1022.9 32.8
28/01:30am 9.3 7.1 7.9 91 0.7 WSW 9 15 5 8 1022.6 1022.8 32.8
28/01:00am 9.4 6.9 8.0 91 0.7 WSW 11 17 6 9 1022.4 1022.6 32.8
28/12:30am 9.5 7.5 8.6 94 0.4 WSW 9 17 5 9 1022.3 1022.5 32.8
28/12:00am 9.6 8.1 9.0 96 0.3 W 7 15 4 8 1022.2 1022.4 32.8
 
Date/Time
EST
Temp
°C
App
Temp
°C
Dew
Point
Rel
Hum
%
Delta-T
°C
Wind Press
QNH
hPa
Press
MSL
hPa
Rain
since 9 am
mm
Dir
 
Spd
km/h
Gust
km/h
Spd
kts
Gust
kts
27/11:30pm 9.6 8.3 9.1 97 0.2 WSW 6 11 3 6 1022.0 1022.2 32.8
27/11:00pm 9.4 8.4 8.9 97 0.2 WSW 4 6 2 3 1022.0 1022.2 32.8
27/10:30pm 9.6 8.7 9.1 97 0.2 WSW 4 6 2 3 1022.0 1022.2 32.8
27/10:00pm 9.7 9.2 9.4 98 0.1 SW 2 6 1 3 1021.9 1022.1 32.8
27/09:30pm 9.5 8.6 9.2 98 0.1 W 4 6 2 3 1021.9 1022.1 32.8
27/09:00pm 9.5 8.6 9.4 99 0.0 W 4 6 2 3 1021.7 1021.9 32.8
27/08:30pm 9.6 8.8 9.5 99 0.1 W 4 7 2 4 1021.4 1021.6 32.8
27/08:00pm 9.6 9.2 9.6 100 0.0 SW 2 4 1 2 1021.0 1021.3 32.8
27/07:30pm 9.8 9.0 9.8 100 0.0 WSW 4 6 2 3 1020.7 1020.9 32.8
27/07:00pm 10.0 9.3 10.0 100 0.0 WSW 4 6 2 3 1020.4 1020.6 32.8
27/06:30pm 10.0 9.3 10.0 100 0.0 WNW 4 4 2 2 1020.0 1020.2 32.8
27/06:00pm 10.0 9.3 10.0 100 0.0 NW 4 6 2 3 1019.6 1019.8 32.0
27/05:30pm 10.1 9.4 10.1 100 0.0 WNW 4 6 2 3 1019.2 1019.4 30.8
27/05:00pm 10.1 9.8 10.1 100 0.0 WNW 2 6 1 3 1018.9 1019.1 29.6
27/04:30pm 10.1 9.4 10.1 100 0.0 WNW 4 6 2 3 1018.6 1018.8 28.8
27/04:00pm 10.0 8.9 10.0 100 0.0 NW 6 9 3 5 1018.4 1018.6 28.2
27/03:30pm 9.9 8.8 9.9 100 0.0 WNW 6 9 3 5 1018.4 1018.6 27.4
27/03:00pm 9.8 8.5 9.8 100 0.0 WNW 7 15 4 8 1018.5 1018.7 25.8
27/02:30pm 9.8 8.1 9.8 100 0.0 WNW 9 15 5 8 1018.5 1018.7 23.6
27/02:00pm 9.5 8.1 9.5 100 0.0 WNW 7 9 4 5 1018.7 1018.9 20.6
27/01:30pm 9.3 7.4 9.2 99 0.0 NW 9 13 5 7 1018.8 1019.0 17.4
27/01:00pm 9.2 6.9 9.1 99 0.0 NW 11 17 6 9 1019.0 1019.2 14.2
27/12:30pm 9.4 7.2 9.3 99 0.0 NW 11 19 6 10 1019.3 1019.5 11.4
27/12:00pm 9.6 7.8 9.6 100 0.0 WNW 9 15 5 8 1019.5 1019.7 9.6
27/11:30am 9.6 7.8 9.6 100 0.0 WNW 9 13 5 7 1019.9 1020.1 8.4
27/11:00am 9.6 8.2 9.6 100 0.0 NW 7 13 4 7 1020.3 1020.5 5.6
27/10:30am 9.5 8.1 9.5 100 0.0 WNW 7 13 4 7 1020.4 1020.6 3.4
27/10:00am 9.4 6.8 9.4 100 0.0 W 13 17 7 9 1020.4 1020.6 2.0
27/09:30am 9.5 7.7 9.5 100 0.0 W 9 13 5 7 1020.6 1020.8 0.8
27/09:00am 9.2 7.3 9.2 100 0.0 WSW 9 13 5 7 1020.7 1020.9 8.6
27/08:30am 9.2 7.7 9.2 100 0.0 W 7 13 4 7 1020.9 1021.2 7.2
27/08:00am 9.1 8.9 9.1 100 0.0 CALM 0 2 0 1 1021.0 1021.3 5.8
27/07:30am 8.9 8.3 8.9 100 0.0 W 2 7 1 4 1020.5 1020.7 4.6
27/07:00am 8.9 7.9 8.8 99 0.0 W 4 4 2 2 1020.4 1020.6 3.4
27/06:30am 8.8 8.5 8.7 99 0.0 CALM 0 0 0 0 1020.2 1020.4 2.2
27/06:00am 8.8 8.5 8.7 99 0.0 CALM 0 2 0 1 1020.1 1020.3 1.6
27/05:30am 8.8 8.1 8.7 99 0.0 ENE 2 4 1 2 1020.1 1020.3 1.2
27/05:00am 8.9 7.9 8.8 99 0.0 NNE 4 6 2 3 1020.0 1020.2 0.4
27/04:30am 9.1 8.1 9.0 99 0.0 E 4 6 2 3 1020.1 1020.3 0.0
27/04:00am 9.1 7.7 8.8 98 0.1 ENE 6 7 3 4 1020.3 1020.5 0.0
27/03:30am 9.2 7.8 8.9 98 0.1 E 6 7 3 4 1020.3 1020.5 0.0
27/03:00am 9.2 7.3 8.9 98 0.1 ENE 9 13 5 7 1020.7 1020.9 0.0
27/02:30am 9.3 7.4 9.0 98 0.1 E 9 13 5 7 1021.0 1021.3 0.0
27/02:00am 9.2 7.8 8.7 97 0.2 E 6 11 3 6 1021.7 1021.9 0.0
27/01:30am 9.4 8.0 8.9 97 0.2 E 6 9 3 5 1021.9 1022.1 0.0
27/01:00am 9.4 7.5 8.9 97 0.2 E 9 13 5 7 1022.2 1022.4 0.0
27/12:30am 9.2 7.7 8.6 96 0.3 E 6 9 3 5 1022.3 1022.5 0.0
27/12:00am 9.2 7.7 8.4 95 0.4 E 6 9 3 5 1022.5 1022.7 0.0
 
Date/Time
EST
Temp
°C
App
Temp
°C
Dew
Point
Rel
Hum
%
Delta-T
°C
Wind Press
QNH
hPa
Press
MSL
hPa
Rain
since 9 am
mm
Dir
 
Spd
km/h
Gust
km/h
Spd
kts
Gust
kts
26/11:30pm 9.7 8.1 8.9 95 0.4 E 7 11 4 6 1022.9 1023.1 0.0
26/11:00pm 9.7 7.7 8.8 94 0.4 ESE 9 15 5 8 1023.0 1023.2 0.0
26/10:30pm 9.8 7.5 8.9 94 0.4 E 11 17 6 9 1023.3 1023.5 0.0
26/10:00pm 9.8 7.8 8.7 93 0.5 E 9 13 5 7 1023.6 1023.8 0.0
26/09:30pm 9.9 7.9 8.7 92 0.6 ESE 9 13 5 7 1023.6 1023.8 0.0
26/09:00pm 10.0 7.2 8.4 90 0.8 E 13 19 7 10 1023.6 1023.8 0.0
26/08:30pm 10.1 7.3 8.4 89 0.8 E 13 19 7 10 1023.7 1023.9 0.0
26/08:00pm 10.0 7.5 8.1 88 0.9 E 11 19 6 10 1023.6 1023.8 0.0
26/07:30pm 10.0 6.6 7.8 86 1.1 E 15 24 8 13 1023.5 1023.7 0.0
26/07:00pm 10.4 7.0 7.6 83 1.3 ESE 15 20 8 11 1023.4 1023.6 0.0
26/06:30pm 10.7 7.0 7.8 82 1.4 E 17 24 9 13 1023.3 1023.5 0.0
26/06:00pm 11.3 8.0 8.2 81 1.5 E 15 22 8 12 1023.2 1023.4 0.0
26/05:30pm 11.8 8.2 8.3 79 1.7 E 17 24 9 13 1023.1 1023.3 0.0
26/05:00pm 12.4 8.7 8.1 75 2.1 E 17 28 9 15 1022.9 1023.1 0.0
26/04:30pm 12.8 8.5 7.9 72 2.4 E 20 32 11 17 1023.0 1023.2 0.0
26/04:00pm 13.0 8.7 7.9 71 2.5 E 20 32 11 17 1023.0 1023.2 0.0
26/03:30pm 12.9 8.8 7.8 71 2.5 E 19 32 10 17 1023.0 1023.2 0.0
26/03:00pm 13.1 8.0 7.5 69 2.7 E 24 37 13 20 1022.9 1023.1 0.0
26/02:30pm 13.3 8.5 7.3 67 2.9 E 22 39 12 21 1023.3 1023.5 0.0
26/02:00pm 13.3 8.9 7.5 68 2.8 E 20 30 11 16 1023.4 1023.6 0.0
26/01:30pm 13.0 8.5 7.0 67 2.9 E 20 35 11 19 1023.7 1023.9 0.0
26/01:00pm 12.5 8.0 7.0 69 2.7 E 20 30 11 16 1024.1 1024.3 0.0
26/12:30pm 12.5 6.8 6.8 68 2.7 E 26 37 14 20 1024.6 1024.8 0.0
26/12:00pm 12.6 8.2 7.5 71 2.5 E 20 30 11 16 1025.1 1025.3 0.0
26/11:30am 12.3 7.4 7.0 70 2.6 E 22 35 12 19 1025.7 1025.9 0.0
26/11:00am 12.1 7.3 7.4 73 2.3 E 22 35 12 19 1025.9 1026.1 0.0

Other Formats:

Comma delimited format used in spreadsheet applications
http://www.bom.gov.au/fwo/IDV60801/IDV60801.99806.axf

JavaScript Object Notation format (JSON) in row-major order
http://www.bom.gov.au/fwo/IDV60801/IDV60801.99806.json